Lahaina, HI (96761)

4:08 PM HST on February 11, 2016 (GMT -1000)
puamana | | Change Station
CLOSE
Current Station
Personal Weather Station
Location: Lahaina, HI
Elevation: 36 ft
Nearby Weather Stations

Elev 36 ft 20.86 °N, 156.67 °W | Updated 9 minutes ago

Partly Cloudy
Partly Cloudy
79.8 °F
Feels Like 82 °F
N
1.0
Wind Variable Wind from SW
Gusts 6.0 mph

Today
High -- | Low -- °F
--% Chance of Precip.
Yesterday
High -- | Low -- °F
Precip. -- in
Pressure 30.01 in
Visibility 15.0 miles
Clouds Few 5000 ft
Heat Index 82 °F
Dew Point 65 °F
Humidity 60%
Rainfall 0.00 in
Snow Depth Not available.
6:59 AM 6:22 PM
Waxing Crescent, 16% visible
METAR PHJH 120145Z 04014G21KT 15SM FEW050 25/14 A3001
Pressure 30.01 in
Visibility 15.0 miles
Clouds Few 5000 ft
Heat Index 82 °F
Dew Point 65 °F
Humidity 60%
Rainfall 0.00 in
Snow Depth Not available.
6:59 AM 6:22 PM
Waxing Crescent, 16% visible
METAR PHJH 120145Z 04014G21KT 15SM FEW050 25/14 A3001

10-Day Weather Forecast

Almanac

Astronomy

Feb. 11, 2016 Rise Set
Actual Time
Civil Twilight
Nautical Twilight
Astronomical Twilight
Moon
Length of Visible Light
Length of Day
Tomorrow will be .
, % of the Moon is Illuminated

Today's Extremes

State Highs State Lows

Community

WunderPhotos

Upload Photos

1,892,223 photos uploaded!

WunderBlog® & News

Nearby

Air Quality

  Air Quality AQ Index Pollutant
Not available.

Snow Depth

Station Depth Elevation

Earthquake Activity

City Distance Mag. Time & Date
Minimum magnitude displayed is 2.5.

Coastal Water Temperatures

Place Temperature

Stations

Nearby Weather Stations

Station Location Temp. Windchill Dew Point Humidity Wind Precip. Elev Updated Type
                   

Watches & Warnings

There are currently no watches in effect.